Time;durP1;ratioP1;P1;durP2;ratioP2;P2;SDS_P1;SDS_P2;PMS_P1;PMS_P2;Temp;Humidity;BMP_temperature;BMP_pressure;BME280_temperature;BME280_humidity;BME280_pressure;Samples;Min_cycle;Max_cycle;Signal;HPM_P1;HPM_P2
2020/12/28 00:00:01;;;;;;;;;36.67;33.67;;;;;0.84;71.36;102448.69;4434308;32;8891;-85
2020/12/28 00:02:33;;;;;;;;;25.33;25.33;;;;;1.09;71.10;102448.69;4437011;32;8972;-85
2020/12/28 00:05:02;;;;;;;;;33.33;32.00;;;;;0.99;70.84;102460.09;4430548;32;8959;-85
2020/12/28 00:07:35;;;;;;;;;38.67;34.33;;;;;1.18;70.52;102465.59;4421890;32;8975;-85
2020/12/28 00:10:30;;;;;;;;;29.67;28.33;;;;;1.27;70.10;102456.06;4430093;32;8880;-86
2020/12/28 00:13:00;;;;;;;;;27.33;25.67;;;;;1.41;69.76;102454.03;4435396;32;8971;-86
2020/12/28 00:15:55;;;;;;;;;22.00;21.67;;;;;1.48;69.79;102452.91;4434999;32;8892;-86
2020/12/28 00:18:51;;;;;;;;;34.67;33.33;;;;;1.29;69.77;102452.03;4434145;32;8939;-86
2020/12/28 00:21:46;;;;;;;;;19.00;19.00;;;;;1.14;69.91;102443.37;4435027;32;8876;-85
2020/12/28 00:24:14;;;;;;;;;23.67;23.67;;;;;1.03;70.42;102442.25;4435189;32;8959;-85
2020/12/28 00:27:09;;;;;;;;;25.33;25.00;;;;;1.16;69.65;102444.03;4433581;32;9559;-85
2020/12/28 00:30:00;;;;;;;;;16.00;15.67;;;;;1.03;69.63;102433.25;4434723;32;8883;-86
2020/12/28 00:32:56;;;;;;;;;22.67;22.67;;;;;1.02;69.54;102434.31;4434774;32;8891;-85
2020/12/28 00:35:25;;;;;;;;;21.67;21.67;;;;;1.00;69.43;102428.25;4436534;32;8971;-85
2020/12/28 00:37:56;;;;;;;;;22.33;20.00;;;;;1.14;69.04;102429.75;4435591;32;8926;-85
2020/12/28 00:40:51;;;;;;;;;23.33;20.67;;;;;0.97;68.63;102431.41;4435369;32;8895;-85
2020/12/28 00:43:47;;;;;;;;;3.33;1.00;;;;;0.96;68.67;102424.31;4419449;32;8902;-85
2020/12/28 00:46:38;;;;;;;;;24.00;21.00;;;;;1.12;68.10;102429.16;4428840;32;8893;-84
2020/12/28 00:49:06;;;;;;;;;21.00;20.00;;;;;1.19;67.75;102427.19;4420090;32;8921;-84
2020/12/28 00:52:02;;;;;;;;;16.00;16.00;;;;;1.11;67.40;102425.59;4422946;32;8923;-85
2020/12/28 00:54:46;;;;;;;;;18.33;18.33;;;;;1.22;67.07;102420.47;4434013;32;8899;-84
2020/12/28 00:57:42;;;;;;;;;21.67;20.33;;;;;1.19;66.69;102418.19;4417319;32;9060;-84
2020/12/28 01:00:17;;;;;;;;;21.33;20.33;;;;;0.93;66.99;102411.12;4420150;32;8893;-85
2020/12/28 01:03:13;;;;;;;;;16.67;16.67;;;;;1.08;66.50;102398.00;4418846;32;8925;-84
2020/12/28 01:06:08;;;;;;;;;26.33;24.67;;;;;0.98;66.50;102403.94;4418554;32;8914;-84
2020/12/28 01:09:04;;;;;;;;;34.67;33.67;;;;;1.04;66.13;102404.94;4431147;32;9014;-86
2020/12/28 01:11:56;;;;;;;;;27.33;26.67;;;;;1.22;65.52;102406.81;4435233;32;8871;-85
2020/12/28 01:14:24;;;;;;;;;21.33;21.33;;;;;1.31;65.23;102400.88;4434725;32;8879;-85
2020/12/28 01:16:51;;;;;;;;;16.00;15.67;;;;;0.98;65.84;102386.75;4434880;32;8930;-85
2020/12/28 01:19:48;;;;;;;;;15.00;15.00;;;;;1.03;65.71;102382.31;4432391;32;8989;-85
2020/12/28 01:22:23;;;;;;;;;16.67;16.67;;;;;1.24;65.30;102383.75;4434889;32;8905;-85
2020/12/28 01:25:19;;;;;;;;;6.67;6.67;;;;;1.35;64.84;102382.16;4433835;32;8950;-85
2020/12/28 01:28:15;;;;;;;;;13.67;13.67;;;;;1.37;64.68;102374.56;4433370;32;9543;-85
2020/12/28 01:31:11;;;;;;;;;17.67;17.00;;;;;1.38;65.01;102371.63;4434598;32;8957;-85
2020/12/28 01:34:07;;;;;;;;;24.33;22.00;;;;;1.45;64.94;102357.06;4432772;32;8974;-85
2020/12/28 01:37:02;;;;;;;;;32.33;28.00;;;;;1.46;64.73;102345.09;4434311;32;9287;-85
2020/12/28 01:39:58;;;;;;;;;31.33;22.33;;;;;1.51;64.77;102353.44;4432874;32;8899;-85
2020/12/28 01:42:55;;;;;;;;;24.00;23.33;;;;;1.52;64.80;102347.75;4433952;32;8941;-85
2020/12/28 01:45:27;;;;;;;;;24.33;22.00;;;;;1.45;64.87;102332.53;4422703;32;8922;-85
2020/12/28 01:48:22;;;;;;;;;27.33;25.00;;;;;1.26;65.22;102332.56;4448544;32;8923;-84
2020/12/28 01:51:19;;;;;;;;;17.33;17.33;;;;;1.46;64.90;102331.47;4438792;32;8946;-84
2020/12/28 01:53:46;;;;;;;;;16.67;16.67;;;;;1.51;64.95;102334.34;4435498;32;8913;-84
2020/12/28 01:56:43;;;;;;;;;15.67;15.67;;;;;1.56;64.79;102320.84;4433910;32;9075;-84
2020/12/28 01:59:39;;;;;;;;;13.33;13.00;;;;;1.48;64.78;102315.72;4433848;32;8904;-84
2020/12/28 02:02:36;;;;;;;;;8.00;8.00;;;;;1.28;65.26;102305.06;4434929;32;9034;-84
2020/12/28 02:05:31;;;;;;;;;17.33;17.33;;;;;1.25;65.42;102302.81;4433443;32;8985;-83
2020/12/28 02:08:27;;;;;;;;;15.00;15.00;;;;;1.27;65.43;102296.06;4433116;32;8887;-84
2020/12/28 02:11:22;;;;;;;;;20.33;20.33;;;;;1.45;65.02;102288.91;4435606;32;8938;-83
2020/12/28 02:14:18;;;;;;;;;23.00;20.00;;;;;1.58;64.92;102283.25;4437845;32;8891;-83
2020/12/28 02:17:03;;;;;;;;;9.33;9.33;;;;;1.54;65.05;102284.81;4425507;32;8902;-84
2020/12/28 02:19:32;;;;;;;;;10.00;10.00;;;;;1.03;66.32;102267.84;4437319;32;8918;-84
2020/12/28 02:22:27;;;;;;;;;23.67;19.33;;;;;1.09;66.35;102275.13;4427571;32;8887;-85
2020/12/28 02:25:23;;;;;;;;;63.00;50.33;;;;;1.16;66.45;102287.84;4437991;32;8938;-84
2020/12/28 02:27:50;;;;;;;;;22.00;19.00;;;;;1.33;65.97;102267.87;4425266;32;9670;-85
2020/12/28 02:30:46;;;;;;;;;17.67;17.33;;;;;1.20;65.98;102259.88;4436770;32;8904;-85
2020/12/28 02:33:42;;;;;;;;;13.00;12.33;;;;;1.21;66.34;102255.25;4436624;32;8900;-84
2020/12/28 02:36:11;;;;;;;;;15.33;13.67;;;;;1.35;65.71;102254.84;4437927;32;9099;-85
2020/12/28 02:39:07;;;;;;;;;9.33;7.33;;;;;1.54;65.35;102268.44;4435204;32;8896;-85
2020/12/28 02:42:02;;;;;;;;;5.67;5.67;;;;;1.16;66.08;102266.03;4436328;32;8895;-85
2020/12/28 02:44:30;;;;;;;;;7.33;7.33;;;;;1.41;65.49;102260.44;4436823;32;8943;-82
2020/12/28 02:47:25;;;;;;;;;10.67;8.00;;;;;1.20;66.10;102262.59;4436362;32;8916;-83
2020/12/28 02:50:21;;;;;;;;;12.33;12.33;;;;;1.15;66.38;102258.91;4437127;32;8946;-83
2020/12/28 02:53:17;;;;;;;;;10.00;10.00;;;;;1.31;66.09;102270.03;4427237;32;8904;-83
2020/12/28 02:56:13;;;;;;;;;9.67;9.67;;;;;1.17;66.56;102263.06;4437214;32;8904;-83
2020/12/28 02:58:40;;;;;;;;;13.00;13.00;;;;;1.20;66.54;102261.78;4436834;32;8891;-85
2020/12/28 03:01:37;;;;;;;;;8.00;8.00;;;;;1.33;66.03;102264.34;4437855;32;9049;-84
2020/12/28 03:04:32;;;;;;;;;26.00;21.33;;;;;1.37;66.02;102258.16;4435045;32;9014;-84
2020/12/28 03:07:08;;;;;;;;;28.33;28.00;;;;;1.11;66.63;102269.44;4436479;32;8883;-85
2020/12/28 03:09:37;;;;;;;;;17.67;14.67;;;;;1.12;66.79;102261.03;4437158;32;9066;-83
2020/12/28 03:12:32;;;;;;;;;8.67;8.67;;;;;1.39;65.97;102249.78;4436139;32;8907;-83
2020/12/28 03:15:28;;;;;;;;;20.33;17.67;;;;;1.38;65.94;102246.22;4436630;32;8949;-84
2020/12/28 03:18:25;;;;;;;;;12.67;12.67;;;;;1.30;65.89;102245.69;4435944;32;8968;-84
2020/12/28 03:21:08;;;;;;;;;13.00;11.67;;;;;1.14;66.17;102255.34;4434253;32;8952;-84
2020/12/28 03:24:03;;;;;;;;;7.00;7.00;;;;;1.32;65.70;102249.03;4436046;32;9027;-83
2020/12/28 03:27:03;;;;;;;;;10.00;10.00;;;;;1.35;65.58;102249.41;4450701;32;8885;-84
2020/12/28 03:29:31;;;;;;;;;10.33;10.33;;;;;1.29;65.91;102241.31;4451475;32;8951;-84
2020/12/28 03:32:27;;;;;;;;;6.33;6.33;;;;;1.03;66.21;102235.16;4442032;32;8885;-84
2020/12/28 03:35:11;;;;;;;;;10.00;10.00;;;;;1.26;65.49;102230.88;4448501;32;8907;-82
2020/12/28 03:37:54;;;;;;;;;4.00;4.00;;;;;0.99;66.10;102227.66;4452011;32;8896;-83
2020/12/28 03:40:49;;;;;;;;;14.00;9.00;;;;;1.05;66.15;102215.84;4452036;32;9599;-82
2020/12/28 03:43:38;;;;;;;;;8.33;8.33;;;;;1.20;65.76;102218.16;4441185;32;8926;-85
2020/12/28 03:46:34;;;;;;;;;13.00;13.00;;;;;1.22;65.58;102216.87;4438196;32;8900;-85
2020/12/28 03:49:30;;;;;;;;;17.00;15.00;;;;;1.31;65.28;102212.78;4452247;32;9545;-84
2020/12/28 03:52:25;;;;;;;;;30.33;30.00;;;;;1.11;65.26;102210.31;4434988;32;8956;-83
2020/12/28 03:54:53;;;;;;;;;23.33;17.67;;;;;1.13;65.57;102218.25;4428334;32;8889;-84
2020/12/28 03:57:50;;;;;;;;;21.00;18.67;;;;;1.12;65.55;102220.16;4419604;32;8894;-84
2020/12/28 04:00:31;;;;;;;;;19.33;16.67;;;;;1.12;65.41;102208.41;4421787;32;9652;-84
2020/12/28 04:03:03;;;;;;;;;13.33;13.33;;;;;1.02;65.73;102206.25;4419597;32;8912;-84
2020/12/28 04:06:01;;;;;;;;;8.67;8.67;;;;;1.10;65.48;102207.81;4424129;32;9031;-85
2020/12/28 04:08:56;;;;;;;;;8.67;7.67;;;;;1.29;65.30;102216.78;4434148;32;8904;-84
2020/12/28 04:11:52;;;;;;;;;7.67;7.67;;;;;1.21;64.94;102217.94;4435605;32;8919;-84
2020/12/28 04:14:19;;;;;;;;;4.67;4.67;;;;;1.42;64.69;102213.88;4419837;32;8897;-84
2020/12/28 04:16:47;;;;;;;;;6.00;6.00;;;;;1.33;64.74;102218.81;4422414;32;12478;-84
2020/12/28 04:19:43;;;;;;;;;12.67;10.00;;;;;1.45;64.23;102232.47;4419761;32;12331;-83
2020/12/28 04:22:25;;;;;;;;;10.67;10.67;;;;;1.71;63.72;102230.44;4429524;32;8922;-84
2020/12/28 04:24:53;;;;;;;;;7.67;7.00;;;;;1.70;63.60;102242.41;4422870;32;8875;-84
2020/12/28 04:27:28;;;;;;;;;8.67;8.67;;;;;1.60;64.11;102235.59;4434882;32;8886;-85
2020/12/28 04:29:57;;;;;;;;;13.67;13.67;;;;;1.48;64.26;102242.09;4437515;32;8871;-83
2020/12/28 04:32:52;;;;;;;;;7.00;7.00;;;;;1.91;63.02;102245.38;4436684;32;8935;-83
2020/12/28 04:35:22;;;;;;;;;8.00;8.00;;;;;1.82;63.39;102245.97;4434631;32;8970;-83
2020/12/28 04:37:50;;;;;;;;;7.33;7.33;;;;;1.81;63.07;102244.31;4415450;32;8955;-83
2020/12/28 04:40:45;;;;;;;;;12.33;12.33;;;;;1.63;63.58;102237.03;4434331;32;8949;-85
2020/12/28 04:43:41;;;;;;;;;7.00;7.00;;;;;1.93;63.22;102235.09;4435327;32;9004;-83
2020/12/28 04:46:16;;;;;;;;;7.00;7.00;;;;;1.70;63.47;102236.94;4436424;32;12362;-84
2020/12/28 04:48:44;;;;;;;;;8.67;8.67;;;;;1.53;64.07;102228.59;4436375;32;12367;-83
2020/12/28 04:51:40;;;;;;;;;16.00;16.00;;;;;1.59;64.19;102224.94;4436484;32;12311;-84
2020/12/28 04:54:21;;;;;;;;;28.33;26.33;;;;;1.31;64.64;102222.84;4431652;32;8921;-84
2020/12/28 04:57:17;;;;;;;;;5.00;5.00;;;;;1.28;65.00;102215.94;4417918;32;9574;-83
2020/12/28 04:59:57;;;;;;;;;11.67;10.00;;;;;1.39;64.27;102209.72;4419246;32;8901;-85
2020/12/28 05:02:53;;;;;;;;;20.00;20.00;;;;;1.27;64.93;102211.56;4431378;32;9586;-84
2020/12/28 05:05:48;;;;;;;;;30.33;29.00;;;;;1.63;64.06;102221.50;4435039;32;8907;-84
2020/12/28 05:08:45;;;;;;;;;15.67;15.67;;;;;1.25;64.73;102213.69;4433050;32;9018;-83
2020/12/28 05:11:41;;;;;;;;;9.00;9.00;;;;;1.54;63.79;102211.19;4434582;32;8895;-84
2020/12/28 05:14:37;;;;;;;;;15.67;15.00;;;;;1.45;64.64;102212.56;4433439;32;8934;-83
2020/12/28 05:17:08;;;;;;;;;7.67;7.67;;;;;1.68;63.99;102212.59;4434396;32;8947;-85
2020/12/28 05:19:44;;;;;;;;;10.67;10.67;;;;;1.49;64.14;102211.03;4435300;32;8977;-84
2020/12/28 05:22:24;;;;;;;;;12.00;10.33;;;;;1.35;64.06;102207.69;4437063;32;8999;-85
2020/12/28 05:25:22;;;;;;;;;13.67;13.67;;;;;1.29;64.39;102203.97;4432358;32;9007;-83
2020/12/28 05:28:32;;;;;;;;;11.33;11.33;;;;;1.56;63.73;102203.59;4424731;32;8914;-83
2020/12/28 05:31:02;;;;;;;;;10.33;8.67;;;;;1.48;63.83;102209.37;4434479;32;8886;-84
2020/12/28 05:33:58;;;;;;;;;11.67;11.67;;;;;1.74;63.85;102208.94;4434541;32;8924;-86
2020/12/28 05:36:40;;;;;;;;;12.67;12.67;;;;;1.66;63.18;102198.38;4419317;32;8886;-85
2020/12/28 05:39:25;;;;;;;;;12.67;12.67;;;;;1.64;63.61;102204.06;4421210;32;8921;-84
2020/12/28 05:42:07;;;;;;;;;9.33;8.00;;;;;1.89;62.91;102205.75;4433426;32;8875;-84
2020/12/28 05:44:44;;;;;;;;;9.33;9.33;;;;;1.81;63.11;102204.22;4421108;32;8897;-85
2020/12/28 05:47:16;;;;;;;;;7.33;7.33;;;;;1.80;62.69;102199.00;4419064;32;8943;-85
2020/12/28 05:49:46;;;;;;;;;11.67;11.67;;;;;1.75;63.34;102205.16;4418796;32;8877;-85
2020/12/28 05:52:15;;;;;;;;;7.33;7.33;;;;;2.09;62.88;102208.16;4406699;32;8889;-86
2020/12/28 05:55:16;;;;;;;;;15.67;13.67;;;;;1.79;63.21;102217.28;4424243;32;8940;-85
2020/12/28 05:57:54;;;;;;;;;8.00;8.00;;;;;2.06;62.76;102223.09;4437184;32;8925;-83
2020/12/28 06:00:29;;;;;;;;;8.67;7.33;;;;;2.14;62.49;102224.62;4422737;32;8902;-84
2020/12/28 06:03:08;;;;;;;;;14.00;14.00;;;;;2.06;62.64;102228.56;4434999;32;9584;-84
2020/12/28 06:05:37;;;;;;;;;5.67;5.67;;;;;2.25;61.84;102220.25;4422213;32;8887;-85
2020/12/28 06:08:34;;;;;;;;;11.67;11.67;;;;;2.09;62.59;102217.19;4432654;32;9602;-84
2020/12/28 06:11:05;;;;;;;;;10.00;10.00;;;;;2.29;62.21;102226.91;4433062;32;8863;-78
2020/12/28 06:13:46;;;;;;;;;14.67;14.00;;;;;2.18;62.65;102220.37;4433628;32;12295;-81
2020/12/28 06:16:44;;;;;;;;;11.00;11.00;;;;;2.22;62.34;102214.22;4433567;32;12353;-81
2020/12/28 06:19:35;;;;;;;;;13.00;13.00;;;;;2.07;62.75;102223.91;4432615;32;12361;-80
2020/12/28 06:22:34;;;;;;;;;8.00;8.00;;;;;2.21;62.68;102217.16;4426950;32;8919;-81
2020/12/28 06:25:17;;;;;;;;;11.67;11.00;;;;;2.03;63.04;102225.47;4413650;32;8893;-81
2020/12/28 06:28:22;;;;;;;;;10.00;10.00;;;;;2.16;62.79;102225.25;4420326;32;8980;-79
2020/12/28 06:31:17;;;;;;;;;12.00;11.67;;;;;2.19;63.14;102230.22;4427925;32;8907;-81
2020/12/28 06:34:20;;;;;;;;;11.67;11.67;;;;;2.30;62.59;102236.75;4417861;32;9034;-81
2020/12/28 06:37:26;;;;;;;;;13.33;12.33;;;;;2.10;63.31;102220.75;4419825;32;8908;-80
2020/12/28 06:40:37;;;;;;;;;13.00;13.00;;;;;2.30;62.71;102220.34;4427172;32;12419;-79
2020/12/28 06:43:40;;;;;;;;;10.00;9.33;;;;;2.20;62.88;102221.78;4426587;32;12411;-81
2020/12/28 06:46:39;;;;;;;;;9.33;9.33;;;;;2.37;62.75;102216.44;4425712;32;12340;-82
2020/12/28 06:49:40;;;;;;;;;13.00;13.00;;;;;2.40;62.88;102224.16;4418589;32;12486;-81
2020/12/28 06:52:36;;;;;;;;;9.33;9.33;;;;;2.43;62.91;102220.94;4421649;32;12357;-81
2020/12/28 06:55:10;;;;;;;;;12.25;12.25;;;;;2.46;62.61;102225.12;4423495;32;12363;-80
2020/12/28 06:57:38;;;;;;;;;16.00;14.67;;;;;2.57;62.75;102223.44;4432241;32;12403;-80
2020/12/28 07:00:34;;;;;;;;;17.00;17.00;;;;;2.59;62.80;102219.38;4428126;32;12385;-79
2020/12/28 07:03:01;;;;;;;;;12.50;12.50;;;;;2.84;61.71;102219.13;4427379;32;12411;-79
2020/12/28 07:06:03;;;;;;;;;15.75;15.75;;;;;2.89;61.92;102216.47;4427224;32;12295;-77
2020/12/28 07:09:07;;;;;;;;;10.75;10.75;;;;;3.01;61.97;102216.44;4436990;32;12322;-80
2020/12/28 07:12:11;;;;;;;;;27.75;27.00;;;;;2.72;62.51;102218.28;4424546;32;12926;-82
2020/12/28 07:15:07;;;;;;;;;11.50;11.50;;;;;2.88;62.50;102214.81;4419871;32;12429;-81
2020/12/28 07:18:06;;;;;;;;;17.75;14.75;;;;;2.64;62.71;102213.22;4432721;32;12323;-80
2020/12/28 07:21:04;;;;;;;;;7.25;7.25;;;;;2.82;62.47;102206.75;4436086;32;12302;-79
2020/12/28 07:24:00;;;;;;;;;16.25;16.25;;;;;2.90;62.59;102198.16;4436674;32;12914;-80
2020/12/28 07:26:28;;;;;;;;;9.00;5.50;;;;;3.00;62.77;102188.28;4435272;32;12320;-79
2020/12/28 07:29:19;;;;;;;;;11.75;11.75;;;;;3.16;62.45;102192.13;4429018;32;12294;-80
2020/12/28 07:32:17;;;;;;;;;5.75;5.75;;;;;3.11;62.06;102192.03;4428215;32;12283;-79
2020/12/28 07:35:12;;;;;;;;;12.00;12.00;;;;;2.90;62.49;102188.06;4434806;32;12324;-79
2020/12/28 07:37:42;;;;;;;;;10.25;10.25;;;;;3.18;61.96;102179.03;4435364;32;12301;-79
2020/12/28 07:40:40;;;;;;;;;14.50;14.50;;;;;3.25;62.30;102171.50;4434562;32;12371;-79
2020/12/28 07:43:17;;;;;;;;;10.25;10.25;;;;;3.16;62.71;102173.00;4414892;32;12286;-80
2020/12/28 07:46:33;;;;;;;;;14.25;14.25;;;;;3.35;62.61;102174.41;4428111;32;12285;-81
2020/12/28 07:49:11;;;;;;;;;13.00;10.75;;;;;3.37;62.61;102174.16;4435419;32;12313;-80
2020/12/28 07:52:15;;;;;;;;;13.00;11.25;;;;;3.18;62.69;102170.00;4434781;32;12332;-80
2020/12/28 07:54:48;;;;;;;;;11.00;11.00;;;;;3.26;62.99;102173.16;4434626;32;12945;-80
2020/12/28 07:57:37;;;;;;;;;12.75;12.75;;;;;3.70;61.88;102167.09;4426315;32;12314;-79
2020/12/28 08:00:28;;;;;;;;;14.00;12.50;;;;;3.49;61.94;102157.69;4427348;32;12286;-79
2020/12/28 08:02:55;;;;;;;;;11.50;11.50;;;;;3.90;61.44;102142.75;4427068;32;12318;-79
2020/12/28 08:05:34;;;;;;;;;14.00;12.00;;;;;3.52;62.24;102138.87;4428539;32;12346;-78
2020/12/28 08:08:24;;;;;;;;;13.00;13.00;;;;;3.80;62.08;102145.34;4429063;32;13009;-79
2020/12/28 08:11:22;;;;;;;;;21.25;21.25;;;;;3.75;61.73;102139.78;4426060;32;12410;-79
2020/12/28 08:13:49;;;;;;;;;14.25;14.25;;;;;4.17;61.29;102146.44;4427242;32;12312;-79
2020/12/28 08:16:20;;;;;;;;;17.25;17.25;;;;;3.98;61.96;102134.09;4433866;32;12302;-79
2020/12/28 08:18:49;;;;;;;;;14.25;14.25;;;;;4.05;62.26;102136.69;4432385;32;12304;-79
2020/12/28 08:21:22;;;;;;;;;12.75;12.75;;;;;4.05;61.64;102125.72;4433874;32;12390;-78
2020/12/28 08:24:01;;;;;;;;;12.50;11.00;;;;;4.13;61.53;102119.81;4434547;32;12319;-80
2020/12/28 08:26:30;;;;;;;;;14.75;14.50;;;;;4.36;61.32;102121.47;4432610;32;12328;-79
2020/12/28 08:29:30;;;;;;;;;11.00;11.00;;;;;3.75;62.83;102105.03;4432660;32;12301;-79
2020/12/28 08:32:31;;;;;;;;;15.00;14.50;;;;;4.12;62.30;102104.47;4431711;32;12341;-80
2020/12/28 08:35:28;;;;;;;;;11.25;10.00;;;;;4.49;61.83;102112.06;4432825;32;12421;-80
2020/12/28 08:37:57;;;;;;;;;8.50;8.50;;;;;4.58;61.75;102097.66;4424191;32;12311;-80
2020/12/28 08:40:24;;;;;;;;;11.75;11.75;;;;;4.20;62.42;102093.06;4425541;32;12295;-79
2020/12/28 08:43:06;;;;;;;;;11.00;11.00;;;;;4.50;62.46;102091.78;4426860;32;12299;-78
2020/12/28 08:46:05;;;;;;;;;15.00;14.25;;;;;4.51;61.76;102083.31;4432754;32;12339;-79
2020/12/28 08:49:01;;;;;;;;;8.50;8.50;;;;;4.47;62.47;102074.78;4431920;32;12999;-78
2020/12/28 08:51:30;;;;;;;;;10.00;10.00;;;;;4.19;63.19;102067.59;4426137;32;12262;-79
2020/12/28 08:54:12;;;;;;;;;13.00;13.00;;;;;4.30;63.76;102082.25;4426895;32;12390;-80
2020/12/28 08:57:24;;;;;;;;;13.25;13.25;;;;;4.87;61.99;102072.75;4418493;32;12339;-80
2020/12/28 09:00:00;;;;;;;;;11.50;11.50;;;;;5.05;61.93;102069.63;4418995;32;12432;-79
2020/12/28 09:02:57;;;;;;;;;10.50;10.50;;;;;5.11;61.59;102071.34;4417245;32;12292;-80
2020/12/28 09:05:30;;;;;;;;;12.75;12.75;;;;;4.85;62.63;102083.16;4427407;32;12949;-79
2020/12/28 09:08:28;;;;;;;;;9.25;9.25;;;;;4.94;62.36;102074.19;4428682;32;12364;-78
2020/12/28 09:10:55;;;;;;;;;10.00;10.00;;;;;5.20;61.79;102086.22;4422110;32;12307;-79
2020/12/28 09:13:23;;;;;;;;;14.50;14.50;;;;;5.09;62.17;102089.97;4407382;32;12310;-79
2020/12/28 09:16:19;;;;;;;;;14.75;14.75;;;;;5.05;62.43;102080.59;4433286;32;12351;-79
2020/12/28 09:19:16;;;;;;;;;8.00;8.00;;;;;5.03;62.59;102086.34;4431334;32;12337;-79
2020/12/28 09:21:42;;;;;;;;;5.50;5.50;;;;;5.13;62.17;102079.28;4432372;32;12349;-80
2020/12/28 09:24:10;;;;;;;;;11.25;11.25;;;;;5.33;61.79;102071.25;4434683;32;12987;-80
2020/12/28 09:26:58;;;;;;;;;10.00;10.00;;;;;5.22;62.29;102064.88;4434067;32;12911;-79
2020/12/28 09:29:26;;;;;;;;;7.00;7.00;;;;;5.37;62.44;102071.53;4433370;32;12366;-79
2020/12/28 09:32:23;;;;;;;;;12.00;12.00;;;;;5.20;62.40;102066.19;4433445;32;12331;-79
2020/12/28 09:35:19;;;;;;;;;7.00;6.00;;;;;5.21;62.61;102057.72;4419738;32;12319;-78
2020/12/28 09:38:14;;;;;;;;;9.00;8.50;;;;;5.36;62.15;102058.91;4420247;32;12329;-79
2020/12/28 09:41:12;;;;;;;;;11.50;11.50;;;;;5.14;62.86;102059.84;4428332;32;13059;-79
2020/12/28 09:43:55;;;;;;;;;13.75;13.75;;;;;5.34;62.46;102047.37;4423494;32;12294;-79
2020/12/28 09:46:22;;;;;;;;;8.50;8.50;;;;;5.54;61.72;102042.06;4416440;32;12442;-78
2020/12/28 09:49:19;;;;;;;;;13.00;13.00;;;;;4.96;63.15;102046.50;4425070;32;12442;-79
2020/12/28 09:52:15;;;;;;;;;14.75;12.50;;;;;4.84;63.84;102029.41;4424762;32;12353;-78
2020/12/28 09:55:10;;;;;;;;;12.50;12.00;;;;;5.36;62.70;102024.06;4424891;32;12303;-78
2020/12/28 09:57:40;;;;;;;;;15.50;15.50;;;;;5.39;62.58;102033.72;4421700;32;12310;-78
2020/12/28 10:00:36;;;;;;;;;11.75;11.75;;;;;5.45;62.48;102025.25;4429937;32;12327;-79
2020/12/28 10:03:26;;;;;;;;;9.50;9.50;;;;;5.16;63.42;102016.53;4430279;32;12321;-78
2020/12/28 10:06:31;;;;;;;;;13.00;13.00;;;;;5.15;63.56;101998.44;4428158;32;12700;-79
2020/12/28 10:12:07;;;;;;;;;13.00;13.00;;;;;5.12;63.75;102015.38;4426643;32;12309;-78
2020/12/28 10:14:38;;;;;;;;;12.50;12.50;;;;;4.86;64.50;101997.09;4423108;32;12348;-78
2020/12/28 10:17:35;;;;;;;;;19.75;19.75;;;;;5.00;64.38;101990.91;4416398;32;12320;-77
2020/12/28 10:20:30;;;;;;;;;15.00;15.00;;;;;5.28;63.50;101989.72;4411519;32;12387;-77
2020/12/28 10:23:26;;;;;;;;;9.25;9.25;;;;;5.09;64.04;101993.16;4409523;32;12415;-76
2020/12/28 10:26:27;;;;;;;;;11.75;10.25;;;;;4.87;64.26;101983.09;4418225;32;12296;-77
2020/12/28 10:29:23;;;;;;;;;11.75;11.25;;;;;4.98;64.59;101979.37;4431090;32;12332;-78
2020/12/28 10:32:18;;;;;;;;;8.75;8.75;;;;;5.10;63.76;101987.41;4434215;32;12358;-78
2020/12/28 10:34:47;;;;;;;;;7.50;7.50;;;;;5.27;63.37;101981.75;4433953;32;12271;-79
2020/12/28 10:37:14;;;;;;;;;9.50;9.50;;;;;5.14;63.87;101983.06;4433436;32;12275;-77
2020/12/28 10:40:10;;;;;;;;;12.25;12.25;;;;;5.09;63.99;101973.97;4434419;32;12349;-78
2020/12/28 10:43:06;;;;;;;;;10.25;10.25;;;;;5.08;64.62;101973.13;4433118;32;12431;-79
2020/12/28 10:46:02;;;;;;;;;12.75;12.75;;;;;5.09;64.71;101972.03;4431927;32;12347;-79
2020/12/28 10:48:30;;;;;;;;;16.75;16.75;;;;;5.11;64.11;101967.12;4420526;32;13011;-79
2020/12/28 10:51:26;;;;;;;;;10.25;10.25;;;;;5.12;64.10;101971.50;4421105;32;12544;-80
2020/12/28 10:54:21;;;;;;;;;13.75;12.25;;;;;5.12;64.22;101978.91;4431877;32;12341;-79
2020/12/28 10:57:17;;;;;;;;;9.25;9.25;;;;;5.27;64.09;101990.81;4429947;32;12348;-79
2020/12/28 11:00:07;;;;;;;;;14.25;14.25;;;;;5.28;63.87;101977.94;4430862;32;12262;-79
2020/12/28 11:03:04;;;;;;;;;25.50;20.00;;;;;5.37;63.65;101981.84;4430454;32;12334;-79
2020/12/28 11:05:31;;;;;;;;;10.50;10.25;;;;;5.26;64.28;101972.72;4432007;32;12374;-78
2020/12/28 11:08:27;;;;;;;;;15.75;15.75;;;;;5.24;64.20;101972.16;4424801;32;12367;-78
2020/12/28 11:11:23;;;;;;;;;12.50;12.50;;;;;5.11;63.92;101961.63;4432882;32;12422;-78
2020/12/28 11:14:20;;;;;;;;;15.50;13.75;;;;;5.48;63.28;101963.53;4424364;32;13065;-79
2020/12/28 11:17:02;;;;;;;;;23.50;23.50;;;;;5.24;63.80;101950.22;4429521;32;12423;-80
2020/12/28 11:19:58;;;;;;;;;17.75;16.75;;;;;5.54;63.77;101941.34;4423976;32;12317;-78
2020/12/28 11:22:26;;;;;;;;;18.25;18.25;;;;;5.82;62.75;101931.00;4432848;32;12333;-79
2020/12/28 11:25:22;;;;;;;;;14.50;14.50;;;;;5.87;62.40;101937.34;4413611;32;12386;-78
2020/12/28 11:28:03;;;;;;;;;11.00;11.00;;;;;5.87;61.71;101929.13;4431384;32;12523;-79
2020/12/28 11:30:59;;;;;;;;;12.25;12.25;;;;;5.73;62.61;101924.38;4430330;32;12304;-77
2020/12/28 11:33:55;;;;;;;;;8.00;8.00;;;;;6.07;61.97;101935.81;4428293;32;12365;-77
2020/12/28 11:36:43;;;;;;;;;12.75;12.75;;;;;5.93;62.05;101921.75;4429871;32;12438;-77
2020/12/28 11:39:39;;;;;;;;;9.75;9.75;;;;;5.77;62.12;101922.78;4431831;32;12311;-73
2020/12/28 11:42:20;;;;;;;;;10.00;10.00;;;;;6.06;62.23;101925.94;4429432;32;12283;-74
2020/12/28 11:45:18;;;;;;;;;13.75;13.25;;;;;6.22;61.69;101919.38;4423144;32;13065;-74
2020/12/28 11:48:15;;;;;;;;;10.50;10.50;;;;;6.41;60.98;101920.47;4429730;32;11753;-73
2020/12/28 11:51:10;;;;;;;;;13.25;13.25;;;;;6.39;60.74;101932.84;4431853;32;12320;-74
2020/12/28 11:53:42;;;;;;;;;20.25;20.25;;;;;5.74;62.23;101928.78;4434557;32;12299;-73
2020/12/28 11:56:38;;;;;;;;;30.00;29.75;;;;;5.75;62.78;101923.03;4431479;32;12404;-73
2020/12/28 11:59:28;;;;;;;;;20.25;20.25;;;;;5.94;62.38;101914.34;4425469;32;12383;-72
2020/12/28 12:01:55;;;;;;;;;19.00;19.00;;;;;6.01;61.91;101913.00;4433220;32;12309;-74
2020/12/28 12:04:53;;;;;;;;;24.75;24.75;;;;;6.08;61.75;101915.50;4432464;32;12355;-74
2020/12/28 12:07:49;;;;;;;;;19.75;19.75;;;;;6.08;61.75;101897.09;4432432;32;12576;-73
2020/12/28 12:10:44;;;;;;;;;10.00;10.00;;;;;6.18;61.86;101885.28;4433705;32;13020;-73
2020/12/28 12:13:12;;;;;;;;;23.50;23.25;;;;;5.97;61.97;101880.84;4432774;32;12892;-73
2020/12/28 12:15:46;;;;;;;;;13.25;13.25;;;;;5.71;62.89;101883.50;4433171;32;12313;-73
2020/12/28 12:18:23;;;;;;;;;42.50;40.75;;;;;5.96;62.26;101882.75;4432650;32;12416;-73
2020/12/28 12:20:54;;;;;;;;;21.00;21.00;;;;;5.96;62.54;101887.44;4432568;32;12327;-73
2020/12/28 12:23:21;;;;;;;;;27.00;27.00;;;;;6.09;62.33;101886.91;4425198;32;12321;-72
2020/12/28 12:26:21;;;;;;;;;16.50;16.50;;;;;6.24;61.55;101899.88;4425103;32;12360;-72
2020/12/28 12:29:17;;;;;;;;;16.50;16.50;;;;;6.13;61.55;101894.34;4431668;32;12357;-73
2020/12/28 12:32:09;;;;;;;;;17.50;17.50;;;;;5.95;61.69;101899.50;4434014;32;12372;-74
2020/12/28 12:34:41;;;;;;;;;19.25;19.25;;;;;6.16;61.18;101903.97;4432777;32;12344;-73
2020/12/28 12:37:12;;;;;;;;;26.00;22.25;;;;;6.02;61.79;101891.84;4426758;32;12363;-73
2020/12/28 12:40:08;;;;;;;;;22.50;18.25;;;;;6.06;61.97;101901.22;4429910;32;12319;-72
2020/12/28 12:42:38;;;;;;;;;19.00;17.25;;;;;6.11;61.86;101898.44;4433097;32;12357;-72
2020/12/28 12:45:33;;;;;;;;;24.50;24.50;;;;;6.08;61.90;101897.09;4431983;32;12395;-74
2020/12/28 12:48:01;;;;;;;;;35.50;35.25;;;;;6.05;61.75;101899.53;4434197;32;12315;-73
2020/12/28 12:50:53;;;;;;;;;23.50;20.25;;;;;5.97;62.54;101900.06;4425211;32;12472;-73
2020/12/28 12:53:49;;;;;;;;;14.25;14.25;;;;;5.75;62.80;101886.50;4426970;32;12412;-73
2020/12/28 12:56:45;;;;;;;;;18.50;18.50;;;;;5.84;62.70;101893.16;4424378;32;12309;-74